Time;durP1;ratioP1;P1;durP2;ratioP2;P2;SDS_P1;SDS_P2;PMS_P1;PMS_P2;Temp;Humidity;BMP_temperature;BMP_pressure;BME280_temperature;BME280_humidity;BME280_pressure;Samples;Min_cycle;Max_cycle;Signal;HPM_P1;HPM_P2
2023/12/12 00:00:12;;;;;;;1.60;1.10;;;9.00;98.20;;;;;;5052435;28;20454;-79
2023/12/12 00:02:39;;;;;;;1.60;1.10;;;9.00;98.20;;;;;;5040882;28;20505;-78
2023/12/12 00:05:06;;;;;;;1.60;1.20;;;9.00;98.20;;;;;;5052084;28;21052;-79
2023/12/12 00:07:33;;;;;;;1.60;1.10;;;9.00;98.20;;;;;;5044003;28;20513;-78
2023/12/12 00:10:00;;;;;;;1.60;1.20;;;9.00;98.20;;;;;;5053184;28;20458;-80
2023/12/12 00:12:27;;;;;;;1.60;1.20;;;9.00;98.20;;;;;;5054197;28;20485;-78
2023/12/12 00:14:54;;;;;;;1.60;1.10;;;9.00;98.20;;;;;;5048124;28;20460;-79
2023/12/12 00:17:22;;;;;;;1.60;1.10;;;9.00;98.20;;;;;;5050778;28;20478;-78
2023/12/12 00:19:49;;;;;;;1.60;1.20;;;9.10;98.20;;;;;;5054236;28;20542;-77
2023/12/12 00:22:16;;;;;;;1.60;1.20;;;9.10;98.20;;;;;;5053083;28;20516;-77
2023/12/12 00:24:43;;;;;;;1.60;1.10;;;9.10;98.20;;;;;;5052962;28;20467;-79
2023/12/12 00:27:10;;;;;;;1.60;1.10;;;9.10;98.20;;;;;;5041923;28;20486;-78
2023/12/12 00:29:38;;;;;;;3.60;2.33;;;9.10;98.20;;;;;;5050863;28;20520;-80
2023/12/12 00:32:06;;;;;;;1.60;1.20;;;9.10;98.20;;;;;;5051257;28;20485;-80
2023/12/12 00:34:36;;;;;;;1.60;1.20;;;9.00;98.20;;;;;;5055688;28;20525;-78
2023/12/12 00:37:03;;;;;;;1.60;1.20;;;9.00;98.20;;;;;;5054767;28;20510;-76
2023/12/12 00:39:30;;;;;;;1.60;1.20;;;9.00;98.20;;;;;;5054237;28;20936;-76
2023/12/12 00:41:57;;;;;;;1.60;1.20;;;9.00;98.20;;;;;;5046675;28;20485;-76
2023/12/12 00:44:24;;;;;;;1.60;1.20;;;9.00;98.20;;;;;;5054627;28;20490;-79
2023/12/12 00:46:51;;;;;;;1.60;1.17;;;9.00;98.20;;;;;;5048135;28;20485;-77
2023/12/12 00:49:18;;;;;;;1.60;1.27;;;9.00;98.20;;;;;;5055839;28;20458;-78
2023/12/12 00:51:46;;;;;;;1.60;1.10;;;9.00;98.20;;;;;;5047976;28;20481;-78
2023/12/12 00:54:13;;;;;;;1.60;1.10;;;8.90;98.20;;;;;;5058574;28;20493;-80
2023/12/12 00:56:40;;;;;;;1.60;1.20;;;8.90;98.20;;;;;;5047435;28;20543;-79
2023/12/12 00:59:07;;;;;;;1.60;1.10;;;8.90;98.20;;;;;;5060239;28;20486;-78
2023/12/12 01:01:34;;;;;;;1.60;1.10;;;8.90;98.20;;;;;;5046850;28;20531;-79
2023/12/12 01:04:01;;;;;;;1.60;1.10;;;8.90;98.20;;;;;;5060391;28;20969;-79
2023/12/12 01:06:28;;;;;;;1.60;1.20;;;8.90;98.20;;;;;;5046563;28;20958;-81
2023/12/12 01:08:57;;;;;;;1.60;1.10;;;8.80;98.20;;;;;;5062327;28;20554;-80
2023/12/12 01:11:24;;;;;;;1.60;1.20;;;8.80;98.20;;;;;;5042216;28;21016;-79
2023/12/12 01:13:51;;;;;;;1.60;1.10;;;8.70;98.20;;;;;;5061291;28;20479;-79
2023/12/12 01:16:18;;;;;;;1.60;1.10;;;8.70;98.20;;;;;;5041048;28;20474;-77
2023/12/12 01:18:45;;;;;;;1.60;1.20;;;8.70;98.20;;;;;;5048511;28;20485;-79
2023/12/12 01:21:12;;;;;;;1.60;1.20;;;8.60;98.20;;;;;;5040767;28;21020;-79
2023/12/12 01:23:49;;;;;;;1.60;1.20;;;8.60;98.20;;;;;;5056942;28;20497;-80
2023/12/12 01:26:20;;;;;;;1.60;1.10;;;8.60;98.20;;;;;;5045230;28;20519;-81
2023/12/12 01:28:47;;;;;;;1.60;1.20;;;8.60;98.20;;;;;;5056101;28;20459;-79
2023/12/12 01:31:14;;;;;;;1.60;1.17;;;8.60;98.20;;;;;;5040771;28;20960;-79
2023/12/12 01:33:42;;;;;;;1.60;1.20;;;8.60;98.20;;;;;;5061316;28;20474;-79
2023/12/12 01:36:09;;;;;;;1.60;1.20;;;8.50;98.20;;;;;;5041722;28;20484;-78
2023/12/12 01:38:36;;;;;;;1.60;1.10;;;8.50;98.20;;;;;;5054181;28;20586;-81
2023/12/12 01:41:03;;;;;;;1.60;1.20;;;8.50;98.20;;;;;;5040660;28;20534;-78
2023/12/12 01:43:33;;;;;;;1.60;1.20;;;8.50;98.20;;;;;;5061546;28;20884;-78
2023/12/12 01:46:01;;;;;;;1.60;1.30;;;8.50;98.20;;;;;;5042483;28;20494;-81
2023/12/12 01:48:30;;;;;;;1.60;1.23;;;8.50;98.20;;;;;;5061315;28;20819;-80
2023/12/12 01:50:57;;;;;;;1.60;1.20;;;8.50;98.20;;;;;;5039749;28;20545;-79
2023/12/12 01:53:27;;;;;;;1.67;1.30;;;8.50;98.20;;;;;;5048966;28;21016;-77
2023/12/12 01:55:55;;;;;;;1.60;1.10;;;8.40;98.20;;;;;;5040167;28;20488;-78
2023/12/12 01:58:25;;;;;;;1.60;1.30;;;8.40;98.20;;;;;;5063839;28;20485;-80
2023/12/12 02:00:54;;;;;;;1.60;1.20;;;8.40;98.20;;;;;;5040424;28;20465;-79
2023/12/12 02:03:23;;;;;;;1.60;1.20;;;8.40;98.20;;;;;;5051908;28;20478;-80
2023/12/12 02:05:50;;;;;;;1.60;1.20;;;8.30;98.20;;;;;;5040796;28;20551;-82
2023/12/12 02:08:17;;;;;;;1.60;1.00;;;8.30;98.20;;;;;;5049735;28;20466;-80
2023/12/12 02:10:45;;;;;;;1.60;1.20;;;8.30;98.20;;;;;;5050854;28;20466;-79
2023/12/12 02:13:12;;;;;;;1.60;1.20;;;8.30;98.20;;;;;;5037139;28;20482;-79
2023/12/12 02:15:39;;;;;;;1.60;1.30;;;8.20;98.20;;;;;;5039478;28;20493;-80
2023/12/12 02:18:08;;;;;;;1.67;1.20;;;8.20;98.20;;;;;;5054045;28;20531;-80
2023/12/12 02:20:35;;;;;;;1.60;1.20;;;8.20;98.20;;;;;;5032424;28;20469;-79
2023/12/12 02:23:04;;;;;;;1.60;1.20;;;8.20;98.20;;;;;;5051804;28;20547;-80
2023/12/12 02:25:31;;;;;;;1.60;1.20;;;8.10;98.20;;;;;;5041052;28;20454;-79
2023/12/12 02:28:00;;;;;;;1.60;1.20;;;8.10;98.20;;;;;;5056115;28;20519;-80
2023/12/12 02:30:27;;;;;;;1.60;1.20;;;8.10;98.20;;;;;;5036723;28;20946;-78
2023/12/12 02:32:54;;;;;;;1.60;1.20;;;8.10;98.20;;;;;;5056202;28;21017;-79
2023/12/12 02:35:21;;;;;;;1.60;1.20;;;8.00;98.20;;;;;;5039062;28;20980;-79
2023/12/12 02:37:48;;;;;;;1.60;1.30;;;8.00;98.20;;;;;;5054817;28;20487;-77
2023/12/12 02:40:18;;;;;;;1.60;1.20;;;8.00;98.20;;;;;;5044833;28;20935;-79
2023/12/12 02:42:46;;;;;;;1.60;1.20;;;8.00;98.20;;;;;;5044677;28;20860;-79
2023/12/12 02:45:13;;;;;;;1.60;1.20;;;8.00;98.20;;;;;;5052954;28;20857;-79
2023/12/12 02:47:40;;;;;;;1.60;1.20;;;8.00;98.20;;;;;;5038347;28;21012;-79
2023/12/12 02:50:08;;;;;;;1.63;1.20;;;7.90;98.20;;;;;;5053503;28;20469;-79
2023/12/12 02:52:36;;;;;;;1.60;1.20;;;7.90;98.20;;;;;;5055259;28;20493;-78
2023/12/12 02:55:03;;;;;;;1.60;1.20;;;7.90;98.20;;;;;;5054094;28;20454;-79
2023/12/12 02:57:31;;;;;;;1.60;1.20;;;7.90;98.20;;;;;;5054654;28;20477;-78
2023/12/12 02:59:58;;;;;;;1.60;1.20;;;7.90;98.20;;;;;;5051100;28;20872;-78
2023/12/12 03:02:25;;;;;;;1.60;1.20;;;7.90;98.20;;;;;;5053353;28;20522;-79
2023/12/12 03:04:52;;;;;;;1.60;1.17;;;7.90;98.20;;;;;;5055109;28;20531;-78
2023/12/12 03:07:19;;;;;;;1.63;1.30;;;7.90;98.20;;;;;;5040871;28;20551;-78
2023/12/12 03:09:47;;;;;;;1.60;1.20;;;7.90;98.20;;;;;;5052602;28;21013;-78
2023/12/12 03:12:14;;;;;;;1.60;1.20;;;7.80;98.20;;;;;;5051011;28;20512;-79
2023/12/12 03:14:42;;;;;;;1.63;1.30;;;7.80;98.20;;;;;;5053459;28;21109;-78
2023/12/12 03:17:09;;;;;;;1.60;1.20;;;7.80;98.20;;;;;;5040443;28;20494;-78
2023/12/12 03:19:36;;;;;;;1.60;1.20;;;7.70;98.20;;;;;;5052533;28;20469;-78
2023/12/12 03:22:03;;;;;;;1.70;1.30;;;7.70;98.20;;;;;;5048599;28;20485;-78
2023/12/12 03:24:30;;;;;;;1.60;1.20;;;7.70;98.20;;;;;;5054770;28;20528;-78
2023/12/12 03:26:58;;;;;;;1.60;1.20;;;7.70;98.20;;;;;;5040551;28;20502;-78
2023/12/12 03:29:25;;;;;;;1.60;1.20;;;7.70;98.20;;;;;;5050306;28;20462;-78
2023/12/12 03:31:53;;;;;;;1.60;1.20;;;7.60;98.20;;;;;;5042455;28;20539;-78
2023/12/12 03:34:20;;;;;;;1.60;1.20;;;7.60;98.20;;;;;;5053528;28;20880;-78
2023/12/12 03:36:47;;;;;;;1.63;1.20;;;7.60;98.20;;;;;;5045406;28;20482;-78
2023/12/12 03:39:14;;;;;;;1.60;1.20;;;7.50;98.20;;;;;;5056064;28;20490;-78
2023/12/12 03:41:44;;;;;;;1.63;1.23;;;7.50;98.20;;;;;;5044440;28;20813;-78
2023/12/12 03:44:11;;;;;;;1.60;1.30;;;7.40;98.20;;;;;;5056610;28;20557;-78
2023/12/12 03:46:38;;;;;;;1.70;1.30;;;7.40;98.20;;;;;;5040016;28;20514;-78
2023/12/12 03:49:06;;;;;;;1.63;1.20;;;7.30;98.20;;;;;;5054141;28;20582;-78
2023/12/12 03:51:33;;;;;;;1.60;1.20;;;7.30;98.20;;;;;;5043746;28;20623;-77
2023/12/12 03:54:00;;;;;;;1.60;1.20;;;7.30;98.20;;;;;;5058921;28;20517;-78
2023/12/12 03:56:27;;;;;;;1.63;1.30;;;7.30;98.20;;;;;;5044294;28;20481;-77
2023/12/12 03:58:54;;;;;;;1.67;1.30;;;7.20;98.20;;;;;;5055293;28;20467;-77
2023/12/12 04:01:21;;;;;;;1.67;1.30;;;7.20;98.20;;;;;;5043480;28;20921;-77
2023/12/12 04:03:49;;;;;;;1.60;1.20;;;7.20;98.20;;;;;;5059670;28;20474;-77
2023/12/12 04:06:17;;;;;;;1.70;1.30;;;7.20;98.20;;;;;;5040988;28;20512;-77
2023/12/12 04:08:44;;;;;;;1.60;1.30;;;7.30;98.20;;;;;;5053342;28;20951;-77
2023/12/12 04:11:11;;;;;;;1.60;1.23;;;7.30;98.20;;;;;;5046974;28;20485;-77
2023/12/12 04:13:38;;;;;;;1.60;1.20;;;7.30;98.20;;;;;;5068110;28;20521;-77
2023/12/12 04:16:05;;;;;;;1.60;1.20;;;7.40;98.20;;;;;;5048048;28;20465;-77
2023/12/12 04:18:32;;;;;;;1.63;1.23;;;7.40;98.20;;;;;;5067396;28;20547;-78
2023/12/12 04:20:59;;;;;;;1.67;1.20;;;7.40;98.20;;;;;;5042116;28;21041;-78
2023/12/12 04:23:28;;;;;;;1.60;1.30;;;7.40;98.20;;;;;;5057315;28;20518;-77
2023/12/12 04:25:55;;;;;;;1.60;1.20;;;7.40;98.20;;;;;;5041367;28;20549;-77
2023/12/12 04:28:21;;;;;;;1.60;1.20;;;7.40;98.20;;;;;;5061913;28;20455;-77
2023/12/12 04:30:48;;;;;;;1.60;1.20;;;7.50;98.20;;;;;;5040561;28;20466;-78
2023/12/12 04:33:15;;;;;;;1.60;1.20;;;7.40;98.20;;;;;;5061571;28;20488;-77
2023/12/12 04:35:42;;;;;;;1.60;1.20;;;7.40;98.20;;;;;;5049271;28;20462;-78
2023/12/12 04:38:09;;;;;;;1.60;1.20;;;7.50;98.20;;;;;;5054104;28;20923;-78
2023/12/12 04:40:38;;;;;;;1.60;1.20;;;7.50;98.20;;;;;;5049340;28;21012;-78
2023/12/12 04:43:05;;;;;;;1.60;1.20;;;7.50;98.20;;;;;;5051544;28;20485;-77
2023/12/12 04:45:32;;;;;;;1.60;1.23;;;7.50;98.20;;;;;;5046724;28;20462;-78
2023/12/12 04:47:59;;;;;;;1.60;1.20;;;7.60;98.20;;;;;;5052257;28;20983;-78
2023/12/12 04:50:26;;;;;;;1.60;1.20;;;7.60;98.20;;;;;;5041203;28;20565;-78
2023/12/12 04:52:53;;;;;;;1.60;1.20;;;7.60;98.20;;;;;;5048447;28;20512;-78
2023/12/12 04:55:20;;;;;;;1.63;1.20;;;7.70;98.20;;;;;;5044612;28;20826;-77
2023/12/12 04:57:48;;;;;;;1.60;1.20;;;7.70;98.20;;;;;;5050102;28;20473;-78
2023/12/12 05:00:16;;;;;;;1.60;1.20;;;7.80;98.20;;;;;;5042032;28;20467;-78
2023/12/12 05:02:45;;;;;;;1.63;1.30;;;7.80;98.20;;;;;;5052028;28;20960;-78
2023/12/12 05:05:12;;;;;;;1.67;1.30;;;7.90;98.20;;;;;;5042690;28;20845;-78
2023/12/12 05:07:39;;;;;;;1.60;1.20;;;7.90;98.20;;;;;;5050333;28;20484;-78
2023/12/12 05:10:07;;;;;;;1.63;1.30;;;7.90;98.20;;;;;;5044368;28;20467;-78
2023/12/12 05:12:34;;;;;;;1.63;1.30;;;8.00;98.20;;;;;;5049623;28;20991;-78
2023/12/12 05:15:04;;;;;;;1.60;1.20;;;8.00;98.20;;;;;;5043214;28;20463;-78
2023/12/12 05:17:31;;;;;;;1.60;1.13;;;8.00;98.20;;;;;;5047885;28;20594;-80
2023/12/12 05:19:59;;;;;;;1.63;1.20;;;8.00;98.20;;;;;;5045731;28;20455;-78
2023/12/12 05:22:26;;;;;;;1.63;1.20;;;8.00;98.20;;;;;;5047618;28;20584;-78
2023/12/12 05:24:53;;;;;;;1.63;1.30;;;8.00;98.20;;;;;;5051815;28;20599;-78
2023/12/12 05:27:20;;;;;;;1.60;1.20;;;8.00;98.20;;;;;;5050328;28;20507;-78
2023/12/12 05:29:47;;;;;;;1.60;1.20;;;7.90;98.20;;;;;;5042133;28;20965;-78
2023/12/12 05:32:15;;;;;;;2.13;1.93;;;8.00;98.20;;;;;;5048110;28;20945;-78
2023/12/12 05:34:42;;;;;;;1.60;1.20;;;7.90;98.20;;;;;;5048903;28;20462;-78
2023/12/12 05:37:09;;;;;;;1.70;1.40;;;7.90;98.20;;;;;;5044743;28;20475;-78
2023/12/12 05:39:36;;;;;;;1.63;1.30;;;7.90;98.20;;;;;;5050143;28;20459;-78
2023/12/12 05:42:03;;;;;;;1.60;1.20;;;7.90;98.20;;;;;;5048277;28;20580;-78
2023/12/12 05:44:31;;;;;;;1.60;1.20;;;8.00;98.20;;;;;;5049955;28;20473;-78
2023/12/12 05:46:58;;;;;;;1.60;1.20;;;8.00;98.20;;;;;;5040981;28;20480;-78
2023/12/12 05:49:26;;;;;;;1.60;1.20;;;8.00;98.20;;;;;;5052057;28;20552;-78
2023/12/12 05:51:53;;;;;;;1.63;1.33;;;8.10;98.20;;;;;;5044930;28;20478;-78
2023/12/12 05:54:20;;;;;;;1.60;1.13;;;8.10;98.20;;;;;;5055941;28;20520;-79
2023/12/12 05:56:47;;;;;;;1.60;1.20;;;8.10;98.20;;;;;;5037728;28;20527;-78
2023/12/12 05:59:15;;;;;;;1.60;1.30;;;8.20;98.20;;;;;;5050383;28;20458;-79
2023/12/12 06:01:42;;;;;;;1.67;1.20;;;8.20;98.20;;;;;;5043601;28;20481;-79
2023/12/12 06:04:12;;;;;;;1.63;1.30;;;8.20;98.20;;;;;;5060177;28;20485;-78
2023/12/12 06:06:44;;;;;;;1.60;1.20;;;8.30;98.20;;;;;;5043146;28;20555;-78
2023/12/12 06:09:12;;;;;;;1.60;1.20;;;8.30;98.20;;;;;;5055103;28;20518;-78
2023/12/12 06:11:39;;;;;;;1.60;1.20;;;8.30;98.20;;;;;;5043993;28;20850;-78
2023/12/12 06:14:07;;;;;;;1.60;1.20;;;8.30;98.20;;;;;;5060779;28;20466;-78
2023/12/12 06:16:35;;;;;;;1.60;1.20;;;8.30;98.20;;;;;;5044696;28;20972;-78
2023/12/12 06:19:04;;;;;;;1.60;1.20;;;8.30;98.20;;;;;;5053006;28;20474;-78
2023/12/12 06:21:32;;;;;;;1.60;1.30;;;8.30;98.20;;;;;;5043545;28;20489;-79
2023/12/12 06:24:01;;;;;;;1.60;1.20;;;8.40;98.20;;;;;;5058285;28;20476;-79
2023/12/12 06:26:28;;;;;;;1.60;1.20;;;8.40;98.20;;;;;;5042397;28;20476;-78
2023/12/12 06:28:55;;;;;;;2.20;1.93;;;8.40;98.20;;;;;;5056905;28;20486;-78
2023/12/12 06:31:24;;;;;;;1.60;1.20;;;8.40;98.20;;;;;;5041519;28;20508;-79
2023/12/12 06:33:52;;;;;;;1.60;1.30;;;8.40;98.20;;;;;;5055579;28;20471;-79
2023/12/12 06:36:19;;;;;;;1.60;1.20;;;8.40;98.20;;;;;;5047913;28;20527;-78
2023/12/12 06:38:46;;;;;;;1.60;1.20;;;8.40;98.20;;;;;;5056782;28;20833;-78
2023/12/12 06:41:14;;;;;;;1.60;1.27;;;8.40;98.20;;;;;;5036649;28;20526;-78
2023/12/12 06:43:43;;;;;;;1.60;1.30;;;8.40;98.20;;;;;;5055058;28;21080;-78
2023/12/12 06:46:10;;;;;;;1.60;1.20;;;8.40;98.20;;;;;;5039182;28;20517;-77
2023/12/12 06:48:38;;;;;;;1.60;1.20;;;8.40;98.20;;;;;;5055315;28;21039;-78
2023/12/12 06:51:06;;;;;;;1.60;1.10;;;8.40;98.20;;;;;;5038042;28;20770;-77
2023/12/12 06:53:33;;;;;;;1.60;1.20;;;8.40;98.20;;;;;;5054043;28;20478;-78
2023/12/12 06:56:00;;;;;;;1.60;1.20;;;8.40;98.20;;;;;;5037207;28;20454;-78
2023/12/12 06:58:29;;;;;;;1.60;1.20;;;8.40;98.20;;;;;;5059183;28;20465;-78
2023/12/12 07:00:56;;;;;;;1.60;1.20;;;8.40;98.20;;;;;;5035750;28;20817;-79
2023/12/12 07:03:23;;;;;;;1.60;1.20;;;8.40;98.20;;;;;;5059902;28;20918;-79
2023/12/12 07:05:51;;;;;;;1.63;1.20;;;8.40;98.20;;;;;;5034063;28;20477;-79
2023/12/12 07:08:19;;;;;;;1.60;1.20;;;8.40;98.20;;;;;;5048803;28;20478;-81
2023/12/12 07:10:46;;;;;;;1.60;1.13;;;8.50;98.20;;;;;;5047399;28;20458;-78
2023/12/12 07:13:14;;;;;;;1.70;1.40;;;8.50;98.20;;;;;;5037516;28;20569;-78
2023/12/12 07:15:43;;;;;;;1.60;1.20;;;8.50;98.20;;;;;;5048918;28;20458;-78
2023/12/12 07:18:10;;;;;;;1.63;1.23;;;8.50;98.20;;;;;;5059743;28;20568;-79
2023/12/12 07:20:38;;;;;;;1.60;1.10;;;8.50;98.20;;;;;;5048797;28;20481;-79
2023/12/12 07:23:11;;;;;;;1.60;1.20;;;8.50;98.20;;;;;;5057180;28;21048;-79
2023/12/12 07:25:40;;;;;;;1.60;1.20;;;8.50;98.20;;;;;;5052137;28;20470;-79
2023/12/12 07:28:10;;;;;;;1.60;1.20;;;8.60;98.20;;;;;;5078841;22;20481;-81
2023/12/12 07:30:38;;;;;;;1.80;1.53;;;8.60;98.20;;;;;;5080870;28;20458;-79
2023/12/12 07:33:08;;;;;;;1.60;1.23;;;8.60;98.20;;;;;;5068619;28;20510;-80
2023/12/12 07:35:36;;;;;;;1.60;1.20;;;8.60;98.20;;;;;;5056331;28;20496;-80
2023/12/12 07:38:08;;;;;;;1.63;1.20;;;8.60;98.20;;;;;;5071687;28;20486;-80
2023/12/12 07:40:35;;;;;;;1.60;1.20;;;8.70;98.20;;;;;;5071742;28;20442;-82
2023/12/12 07:43:03;;;;;;;1.60;1.20;;;8.70;98.20;;;;;;5076863;28;20477;-81
2023/12/12 07:45:40;;;;;;;1.60;1.20;;;8.70;98.20;;;;;;5066849;28;20454;-82
2023/12/12 07:51:23;;;;;;;1.60;1.20;;;8.80;98.20;;;;;;5057144;28;20439;-81
2023/12/12 07:53:50;;;;;;;1.60;1.20;;;8.90;98.20;;;;;;5052608;28;20630;-80
2023/12/12 07:56:18;;;;;;;1.60;1.20;;;9.00;98.20;;;;;;5041922;28;20473;-80
2023/12/12 07:58:53;;;;;;;1.60;1.20;;;9.00;98.20;;;;;;5056816;28;20466;-81
2023/12/12 08:01:20;;;;;;;1.60;1.20;;;9.10;98.20;;;;;;5043772;28;20465;-80
2023/12/12 08:03:52;;;;;;;1.60;1.20;;;9.20;98.20;;;;;;5062168;28;20708;-80
2023/12/12 08:06:29;;;;;;;1.60;1.20;;;9.30;98.20;;;;;;5044072;28;20469;-81
2023/12/12 08:08:58;;;;;;;1.60;1.10;;;9.30;98.20;;;;;;5058339;28;20514;-81
2023/12/12 08:11:30;;;;;;;1.63;1.20;;;9.30;98.20;;;;;;5042135;28;20787;-80
2023/12/12 08:13:59;;;;;;;1.60;1.20;;;9.40;98.20;;;;;;5052700;28;20482;-80
2023/12/12 08:16:27;;;;;;;1.70;1.30;;;9.40;98.20;;;;;;5045799;28;20473;-81
2023/12/12 08:18:55;;;;;;;1.60;1.20;;;9.40;98.20;;;;;;5059256;28;20478;-81
2023/12/12 08:21:26;;;;;;;1.70;1.37;;;9.40;98.20;;;;;;5042779;28;20591;-81
2023/12/12 08:23:54;;;;;;;1.67;1.30;;;9.50;98.20;;;;;;5055697;28;20490;-81
2023/12/12 08:26:27;;;;;;;1.60;1.10;;;9.50;98.20;;;;;;5038764;28;20532;-81
2023/12/12 08:28:55;;;;;;;1.60;1.20;;;9.50;98.20;;;;;;5056506;28;20490;-81
2023/12/12 08:31:23;;;;;;;1.60;1.10;;;9.60;98.20;;;;;;5044451;28;20465;-81
2023/12/12 08:33:55;;;;;;;1.60;1.10;;;9.60;98.20;;;;;;5063847;28;20486;-81
2023/12/12 08:36:39;;;;;;;1.60;1.10;;;9.60;98.20;;;;;;5048316;28;20569;-82
2023/12/12 08:39:07;;;;;;;1.60;1.10;;;9.60;98.20;;;;;;5069708;28;20527;-82
2023/12/12 08:41:38;;;;;;;1.67;1.30;;;9.70;98.20;;;;;;5057711;28;20470;-81
2023/12/12 08:44:09;;;;;;;1.60;1.10;;;9.70;98.20;;;;;;5058636;28;20501;-81
2023/12/12 08:46:54;;;;;;;1.60;1.10;;;9.70;98.20;;;;;;5044970;28;20481;-81
2023/12/12 08:49:21;;;;;;;1.60;1.20;;;9.70;98.20;;;;;;5055622;28;20508;-81
2023/12/12 08:51:50;;;;;;;2.37;1.87;;;9.80;98.20;;;;;;5039669;28;20478;-81
2023/12/12 08:54:26;;;;;;;1.60;1.10;;;9.80;98.20;;;;;;5048023;28;20462;-81
2023/12/12 08:56:54;;;;;;;1.70;1.40;;;9.90;98.20;;;;;;5040241;28;20939;-81
2023/12/12 08:59:22;;;;;;;1.90;1.67;;;9.90;98.20;;;;;;5051619;28;20466;-80
2023/12/12 09:01:50;;;;;;;1.70;1.33;;;10.00;98.20;;;;;;5034798;28;20470;-80
2023/12/12 09:04:17;;;;;;;1.60;1.20;;;10.00;98.20;;;;;;5040742;28;20466;-80
2023/12/12 09:06:47;;;;;;;1.60;1.10;;;10.10;98.20;;;;;;5043941;28;20484;-80
2023/12/12 09:09:19;;;;;;;1.60;1.10;;;10.10;98.20;;;;;;5054606;28;20689;-79
2023/12/12 09:11:47;;;;;;;1.60;1.10;;;10.20;98.20;;;;;;5042114;28;20489;-79
2023/12/12 09:14:15;;;;;;;1.60;1.20;;;10.30;98.20;;;;;;5050940;28;20509;-81
2023/12/12 09:16:42;;;;;;;1.60;1.20;;;10.20;98.20;;;;;;5045364;28;20498;-80
2023/12/12 09:19:11;;;;;;;1.60;1.20;;;10.20;98.20;;;;;;5049383;28;20458;-80
2023/12/12 09:21:54;;;;;;;1.60;1.20;;;10.20;98.20;;;;;;5037772;28;20537;-80
2023/12/12 09:24:25;;;;;;;1.60;1.10;;;10.20;98.20;;;;;;5054856;28;20466;-80
2023/12/12 09:27:15;;;;;;;1.60;1.10;;;10.20;98.20;;;;;;5044243;28;20941;-80
2023/12/12 09:29:50;;;;;;;1.70;1.20;;;10.10;98.20;;;;;;5047064;28;20862;-79
2023/12/12 09:32:27;;;;;;;1.60;1.10;;;10.10;98.20;;;;;;5042044;28;20485;-80
2023/12/12 09:35:00;;;;;;;1.60;1.20;;;10.10;98.20;;;;;;5043828;28;20951;-79
2023/12/12 09:38:11;;;;;;;;;;;;;;;;;;;;;
2023/12/12 09:43:35;;;;;;;1.60;1.20;;;10.10;98.20;;;;;;4948965;28;20551;-80
2023/12/12 09:46:34;;;;;;;1.60;1.10;;;10.10;98.20;;;;;;5036071;28;20479;-79
2023/12/12 09:52:14;;;;;;;1.60;1.00;;;10.00;98.20;;;;;;5038629;28;20480;-81
2023/12/12 09:55:15;;;;;;;1.60;1.10;;;10.00;98.20;;;;;;5051724;28;20875;-81
2023/12/12 09:58:10;;;;;;;1.60;1.20;;;10.00;98.20;;;;;;5045774;28;20665;-80
2023/12/12 10:00:56;;;;;;;1.60;1.27;;;10.00;98.20;;;;;;5049214;28;20462;-81
2023/12/12 10:03:25;;;;;;;1.60;1.17;;;10.10;98.20;;;;;;5033545;28;20486;-80
2023/12/12 10:09:02;;;;;;;1.60;1.17;;;10.20;98.20;;;;;;5053542;28;20536;-81
2023/12/12 10:14:37;;;;;;;1.60;1.10;;;10.30;98.20;;;;;;5202562;22;20751;-79
2023/12/12 10:17:54;;;;;;;1.60;1.10;;;10.40;98.20;;;;;;5030499;28;21146;-79
2023/12/12 10:20:27;;;;;;;1.80;1.50;;;10.50;98.20;;;;;;5017651;28;20467;-80
2023/12/12 10:23:05;;;;;;;1.60;1.03;;;10.60;98.20;;;;;;5035414;28;21039;-79
2023/12/12 10:25:41;;;;;;;1.60;1.10;;;10.70;98.20;;;;;;5014281;28;20472;-80
2023/12/12 10:28:09;;;;;;;1.60;1.10;;;10.80;98.20;;;;;;5013253;28;21027;-80
2023/12/12 10:30:42;;;;;;;1.60;1.13;;;10.80;98.20;;;;;;5011628;28;20518;-79
2023/12/12 10:33:22;;;;;;;1.60;1.10;;;10.90;98.20;;;;;;5028500;28;20861;-80
2023/12/12 10:35:52;;;;;;;1.60;1.10;;;10.90;98.20;;;;;;4999708;28;20556;-79
2023/12/12 10:38:45;;;;;;;;;;;;;;;;;;;;;
2023/12/12 10:41:42;;;;;;;1.60;1.10;;;10.90;98.20;;;;;;5004299;28;20478;-80
2023/12/12 10:44:23;;;;;;;1.60;1.20;;;10.90;98.20;;;;;;5027768;28;20574;-80
2023/12/12 10:46:54;;;;;;;1.60;1.10;;;10.90;98.20;;;;;;5007987;28;20478;-79
2023/12/12 10:49:36;;;;;;;1.60;1.10;;;10.90;98.20;;;;;;5021086;28;20484;-82
2023/12/12 10:52:16;;;;;;;1.60;1.00;;;10.90;98.20;;;;;;5014291;28;20479;-81
2023/12/12 10:54:47;;;;;;;1.60;1.20;;;10.90;98.20;;;;;;5020765;28;20500;-81
2023/12/12 10:57:24;;;;;;;1.60;1.00;;;10.90;98.20;;;;;;5021194;28;20480;-80
2023/12/12 11:02:43;;;;;;;1.60;1.10;;;10.90;98.20;;;;;;5030872;28;20475;-77
2023/12/12 11:05:20;;;;;;;1.60;1.20;;;10.90;98.20;;;;;;5029099;28;20477;-77
2023/12/12 11:08:05;;;;;;;1.60;1.00;;;10.90;98.20;;;;;;5033471;28;20474;-82
2023/12/12 11:10:33;;;;;;;1.60;1.10;;;10.80;98.20;;;;;;5027625;28;20459;-81
2023/12/12 11:13:47;;;;;;;1.60;1.10;;;10.70;98.20;;;;;;5018360;28;21063;-81
2023/12/12 11:17:03;;;;;;;1.60;1.00;;;10.70;98.20;;;;;;4945449;28;20469;-81
2023/12/12 11:27:03;;;;;;;1.60;1.10;;;10.80;98.20;;;;;;5016522;28;20483;-83
2023/12/12 11:35:59;;;;;;;1.60;1.10;;;10.60;98.20;;;;;;5050869;28;20913;-82
2023/12/12 11:38:29;;;;;;;1.60;1.10;;;10.60;98.20;;;;;;5038707;28;20470;-82
2023/12/12 11:41:15;;;;;;;1.60;1.10;;;10.50;98.20;;;;;;5040766;28;20467;-82
2023/12/12 11:43:47;;;;;;;1.60;1.10;;;10.40;98.20;;;;;;5042994;28;20489;-82
2023/12/12 11:46:23;;;;;;;1.60;1.10;;;10.30;98.20;;;;;;5028298;28;20561;-83
2023/12/12 11:49:13;;;;;;;1.60;1.10;;;10.20;98.20;;;;;;5053444;28;20478;-83
2023/12/12 11:55:06;;;;;;;1.60;1.10;;;10.20;98.20;;;;;;5013646;28;20857;-86
2023/12/12 12:01:42;;;;;;;1.60;1.10;;;10.30;98.20;;;;;;5020921;28;20534;-84
2023/12/12 12:04:39;;;;;;;1.60;1.10;;;10.30;98.20;;;;;;5039058;28;20483;-81
2023/12/12 12:14:41;;;;;;;1.60;1.10;;;10.30;98.20;;;;;;4965249;28;20542;-82
2023/12/12 12:17:10;;;;;;;1.60;1.10;;;10.20;98.20;;;;;;4979077;28;20642;-81
2023/12/12 12:19:39;;;;;;;1.60;1.10;;;10.20;98.20;;;;;;5036821;28;20460;-81
2023/12/12 12:22:08;;;;;;;1.60;1.10;;;10.10;98.20;;;;;;5040401;28;20544;-79
2023/12/12 12:24:42;;;;;;;1.60;1.10;;;10.10;98.20;;;;;;5055413;28;20466;-80
2023/12/12 12:27:13;;;;;;;1.60;1.10;;;10.00;98.20;;;;;;5047734;28;20493;-81
2023/12/12 12:29:41;;;;;;;1.60;1.10;;;10.00;98.20;;;;;;5049787;28;20494;-80
2023/12/12 12:32:13;;;;;;;1.60;1.10;;;10.00;98.20;;;;;;5045558;28;20489;-80
2023/12/12 12:34:42;;;;;;;1.60;1.10;;;9.90;98.20;;;;;;5051116;28;20514;-81
2023/12/12 12:40:40;;;;;;;1.63;1.20;;;9.90;98.20;;;;;;5031839;28;20462;-81
2023/12/12 12:43:14;;;;;;;1.60;1.10;;;9.90;98.20;;;;;;5031583;28;20509;-77
2023/12/12 12:45:42;;;;;;;1.60;1.10;;;9.90;98.20;;;;;;5045874;28;20479;-76
2023/12/12 12:48:11;;;;;;;1.60;1.10;;;9.90;98.20;;;;;;5056165;28;20562;-76
2023/12/12 12:50:41;;;;;;;2.30;2.10;;;9.90;98.20;;;;;;5048076;28;20581;-76
2023/12/12 12:53:08;;;;;;;1.60;1.10;;;9.80;98.20;;;;;;5033557;28;20482;-78
2023/12/12 12:55:36;;;;;;;1.60;1.10;;;9.80;98.20;;;;;;5046024;28;20450;-78
2023/12/12 12:58:03;;;;;;;1.60;1.10;;;9.70;98.20;;;;;;5037169;28;20486;-78
2023/12/12 13:00:30;;;;;;;1.60;1.10;;;9.70;98.20;;;;;;5028695;28;20509;-80
2023/12/12 13:02:58;;;;;;;1.60;1.10;;;9.70;98.20;;;;;;5046212;28;21018;-80
2023/12/12 13:05:28;;;;;;;1.60;1.10;;;9.70;98.20;;;;;;5046581;28;20540;-79
2023/12/12 13:20:12;;;;;;;1.60;1.10;;;9.70;98.20;;;;;;4926095;29;20520;-79
2023/12/12 13:23:02;;;;;;;1.60;1.10;;;9.70;98.20;;;;;;5047105;28;20491;-83
2023/12/12 13:31:24;;;;;;;1.60;1.20;;;9.60;98.20;;;;;;5026099;28;21134;-83
2023/12/12 13:34:10;;;;;;;1.60;1.20;;;9.60;98.20;;;;;;5021327;28;20526;-81
2023/12/12 13:36:38;;;;;;;1.60;1.20;;;9.60;98.20;;;;;;5037325;28;20565;-77
2023/12/12 13:39:12;;;;;;;1.60;1.10;;;9.60;98.20;;;;;;5034141;28;20546;-76
2023/12/12 13:41:40;;;;;;;4.70;2.23;;;9.60;98.20;;;;;;5026792;28;20511;-78
2023/12/12 13:44:08;;;;;;;1.60;1.10;;;9.70;98.20;;;;;;5039680;28;20486;-79
2023/12/12 13:46:58;;;;;;;1.60;1.17;;;9.70;98.20;;;;;;5027622;28;20898;-81
2023/12/12 13:50:23;;;;;;;1.60;1.10;;;9.70;98.20;;;;;;5027824;28;20486;-81
2023/12/12 13:59:53;;;;;;;1.60;1.20;;;9.70;98.20;;;;;;4852923;29;20481;-77
2023/12/12 14:02:20;;;;;;;1.60;1.10;;;9.70;98.20;;;;;;4954700;28;20558;-77
2023/12/12 14:04:47;;;;;;;1.60;1.10;;;9.70;98.20;;;;;;5010138;28;20503;-77
2023/12/12 14:07:15;;;;;;;1.60;1.10;;;9.70;98.20;;;;;;5027641;28;20565;-79
2023/12/12 14:09:42;;;;;;;1.60;1.10;;;9.70;98.20;;;;;;5024405;28;20505;-79
2023/12/12 14:12:10;;;;;;;1.60;1.10;;;9.80;98.20;;;;;;5025945;28;20521;-81
2023/12/12 14:15:09;;;;;;;1.60;1.10;;;9.80;98.20;;;;;;5031117;28;20467;-81
2023/12/12 14:17:45;;;;;;;1.70;1.40;;;9.80;98.20;;;;;;5028920;28;20889;-81
2023/12/12 14:23:46;;;;;;;1.60;1.10;;;9.80;98.20;;;;;;4931800;29;20470;-82
2023/12/12 14:29:37;;;;;;;1.60;1.10;;;9.90;98.20;;;;;;5044266;28;20454;-80
2023/12/12 14:32:26;;;;;;;;;;;;;;;;;;;;;
2023/12/12 14:34:57;;;;;;;1.60;1.10;;;9.90;98.20;;;;;;5055063;28;20474;-82
2023/12/12 14:37:49;;;;;;;1.60;1.20;;;9.90;98.20;;;;;;5052167;28;21085;-80
2023/12/12 15:00:41;;;;;;;;;;;;;;;;;;;;;